createdAt,value
2022-08-17T00:00:51.662Z,999.90
2022-08-17T00:03:26.250Z,993.72
2022-08-17T00:05:54.809Z,968.30
2022-08-17T00:08:24.706Z,978.75
2022-08-17T00:10:52.161Z,959.47
2022-08-17T00:13:21.391Z,930.10
2022-08-17T00:15:47.884Z,999.90
2022-08-17T00:19:06.370Z,999.90
2022-08-17T00:21:01.598Z,999.90
2022-08-17T00:23:28.098Z,977.65
2022-08-17T00:25:54.786Z,883.63
2022-08-17T00:28:21.213Z,948.30
2022-08-17T00:30:52.971Z,979.53
2022-08-17T00:33:24.712Z,995.95
2022-08-17T00:35:51.694Z,936.22
2022-08-17T00:38:19.618Z,985.45
2022-08-17T00:40:48.121Z,999.90
2022-08-17T00:43:14.776Z,978.85
2022-08-17T00:45:41.675Z,993.47
2022-08-17T00:48:28.993Z,999.90
2022-08-17T00:51:01.901Z,904.80
2022-08-17T00:55:55.803Z,999.90
2022-08-17T00:58:28.737Z,999.90
2022-08-17T01:01:03.604Z,994.42
2022-08-17T01:03:31.152Z,970.88
2022-08-17T01:05:59.969Z,997.83
2022-08-17T01:08:28.014Z,999.90
2022-08-17T01:10:58.882Z,967.42
2022-08-17T01:13:27.770Z,952.75
2022-08-17T01:16:01.909Z,928.15
2022-08-17T01:18:28.661Z,982.97
2022-08-17T01:20:56.071Z,884.53
2022-08-17T01:23:24.122Z,991.63
2022-08-17T01:25:52.467Z,999.90
2022-08-17T01:28:53.178Z,921.72
2022-08-17T01:31:06.958Z,987.35
2022-08-17T01:33:33.805Z,936.97
2022-08-17T01:36:00.726Z,874.67
2022-08-17T01:38:31.665Z,999.90
2022-08-17T01:41:11.188Z,920.03
2022-08-17T01:43:41.471Z,895.17
2022-08-17T01:46:07.995Z,966.60
2022-08-17T01:48:36.494Z,991.60
2022-08-17T01:51:05.515Z,999.90
2022-08-17T01:53:34.443Z,965.00
2022-08-17T01:56:09.831Z,955.67
2022-08-17T01:58:36.901Z,954.08
2022-08-17T02:01:03.510Z,977.40
2022-08-17T02:03:30.347Z,999.90
2022-08-17T02:05:57.163Z,976.55
2022-08-17T02:08:39.047Z,963.70
2022-08-17T02:11:11.967Z,967.80
2022-08-17T02:13:38.900Z,999.60
2022-08-17T02:16:05.634Z,934.85
2022-08-17T02:18:32.072Z,987.78
2022-08-17T02:20:58.665Z,972.22
2022-08-17T02:23:26.313Z,994.03
2022-08-17T02:25:53.214Z,962.97
2022-08-17T02:28:19.682Z,999.90
2022-08-17T02:30:59.444Z,977.72
2022-08-17T02:33:41.832Z,907.20
2022-08-17T02:36:10.709Z,917.30
2022-08-17T02:38:37.861Z,945.80
2022-08-17T02:41:04.561Z,915.00
2022-08-17T02:43:31.094Z,870.85
2022-08-17T02:45:57.509Z,961.42
2022-08-17T02:48:31.485Z,999.90
2022-08-17T02:50:58.779Z,999.90
2022-08-17T02:53:25.602Z,999.90
2022-08-17T02:55:52.837Z,892.10
2022-08-17T02:58:35.226Z,974.92
2022-08-17T03:01:03.957Z,994.05
2022-08-17T03:03:30.376Z,977.75
2022-08-17T03:05:56.867Z,954.17
2022-08-17T03:08:23.872Z,999.03
2022-08-17T03:10:50.593Z,927.75
2022-08-17T03:13:17.325Z,947.22
2022-08-17T03:15:47.443Z,879.90
2022-08-17T03:18:24.904Z,877.05
2022-08-17T03:20:56.500Z,930.90
2022-08-17T03:23:23.946Z,964.17
2022-08-17T03:25:53.383Z,978.78
2022-08-17T03:28:20.348Z,941.50
2022-08-17T03:30:47.169Z,981.00
2022-08-17T03:33:13.738Z,843.08
2022-08-17T03:35:40.665Z,982.90
2022-08-17T03:38:08.050Z,955.53
2022-08-17T03:40:57.161Z,977.55
2022-08-17T03:43:22.389Z,986.08
2022-08-17T03:46:23.718Z,952.70
2022-08-17T03:49:12.964Z,945.97
2022-08-17T03:51:57.991Z,931.22
2022-08-17T03:54:43.132Z,958.28
2022-08-17T03:57:10.723Z,944.47
2022-08-17T03:59:37.904Z,945.22
2022-08-17T04:02:08.999Z,903.10
2022-08-17T04:04:35.863Z,987.15
2022-08-17T04:07:02.333Z,999.90
2022-08-17T04:09:28.828Z,944.53
2022-08-17T04:11:55.291Z,900.55
2022-08-17T04:14:23.952Z,931.90
2022-08-17T04:16:50.447Z,933.45
2022-08-17T04:19:17.256Z,934.15
2022-08-17T04:21:43.761Z,899.30
2022-08-17T04:24:10.235Z,985.30
2022-08-17T04:26:53.038Z,986.75
2022-08-17T04:29:21.467Z,933.00
2022-08-17T04:31:48.082Z,905.42
2022-08-17T04:34:14.558Z,970.97
2022-08-17T04:36:50.254Z,952.13
2022-08-17T04:39:17.096Z,925.45
2022-08-17T04:42:01.995Z,970.33
2022-08-17T04:44:37.685Z,987.53
2022-08-17T04:47:04.766Z,965.05
2022-08-17T04:49:32.740Z,983.10
2022-08-17T04:52:04.341Z,931.47
2022-08-17T04:54:31.477Z,998.53
2022-08-17T04:56:58.076Z,983.65
2022-08-17T04:59:24.593Z,999.90
2022-08-17T05:01:51.963Z,974.20
2022-08-17T05:04:33.789Z,948.85
2022-08-17T05:07:04.582Z,982.67
2022-08-17T05:09:31.621Z,989.92
2022-08-17T05:12:00.569Z,949.70
2022-08-17T05:14:33.017Z,999.05
2022-08-17T05:17:00.418Z,989.88
2022-08-17T05:19:27.649Z,980.47
2022-08-17T05:21:54.054Z,987.25
2022-08-17T05:24:42.895Z,999.90
2022-08-17T05:27:06.992Z,949.40
2022-08-17T05:29:34.485Z,975.78
2022-08-17T05:32:37.297Z,999.90
2022-08-17T05:35:01.800Z,991.35
2022-08-17T05:37:28.344Z,916.20
2022-08-17T05:39:54.823Z,950.80
2022-08-17T05:42:21.691Z,984.55
2022-08-17T05:44:48.332Z,977.55
2022-08-17T05:47:14.778Z,998.53
2022-08-17T05:49:41.213Z,987.22
2022-08-17T05:52:07.598Z,965.83
2022-08-17T05:54:51.183Z,989.95
2022-08-17T05:57:23.651Z,999.90
2022-08-17T06:00:06.668Z,959.13
2022-08-17T06:02:52.699Z,994.03
2022-08-17T06:05:37.816Z,977.83
2022-08-17T06:08:07.688Z,999.90
2022-08-17T06:10:34.074Z,960.63
2022-08-17T06:13:00.466Z,995.03
2022-08-17T06:15:26.842Z,999.47
2022-08-17T06:17:56.336Z,995.95
2022-08-17T06:20:23.398Z,999.90
2022-08-17T06:22:52.160Z,997.97
2022-08-17T06:25:23.533Z,983.65
2022-08-17T06:27:54.161Z,996.85
2022-08-17T06:30:28.644Z,999.90
2022-08-17T06:33:22.451Z,999.90
2022-08-17T06:35:51.929Z,994.72
2022-08-17T06:38:41.202Z,999.90
2022-08-17T06:41:17.023Z,994.47
2022-08-17T06:43:56.710Z,959.05
2022-08-17T06:46:29.423Z,980.67
2022-08-17T06:49:02.107Z,963.92
2022-08-17T06:51:32.989Z,979.03
2022-08-17T06:54:06.453Z,998.15
2022-08-17T06:56:54.473Z,976.15
2022-08-17T06:59:25.297Z,969.20
2022-08-17T07:01:52.186Z,999.90
2022-08-17T07:04:29.075Z,993.42
2022-08-17T07:07:22.062Z,999.90
2022-08-17T07:09:48.793Z,976.70
2022-08-17T07:12:17.316Z,990.10
2022-08-17T07:14:48.282Z,964.25
2022-08-17T07:17:15.816Z,973.33
2022-08-17T07:19:45.373Z,999.90
2022-08-17T07:22:30.660Z,999.90
2022-08-17T07:25:18.692Z,999.08
2022-08-17T07:27:52.644Z,999.90
2022-08-17T07:30:22.196Z,989.30
2022-08-17T07:32:48.650Z,964.13
2022-08-17T07:35:43.765Z,989.63
2022-08-17T07:38:25.648Z,999.90
2022-08-17T07:41:05.456Z,999.90
2022-08-17T07:43:37.914Z,999.90
2022-08-17T07:46:42.115Z,973.92
2022-08-17T07:49:08.534Z,999.90
2022-08-17T07:51:53.819Z,999.90
2022-08-17T07:54:24.919Z,999.78
2022-08-17T07:56:57.411Z,999.85
2022-08-17T07:59:33.836Z,999.90
2022-08-17T08:02:05.413Z,985.70
2022-08-17T08:05:02.088Z,999.90
2022-08-17T08:07:34.672Z,999.90
2022-08-17T08:10:01.147Z,999.90
2022-08-17T08:12:38.690Z,999.90
2022-08-17T08:15:18.501Z,999.90
2022-08-17T08:17:46.622Z,999.90
2022-08-17T08:20:51.260Z,999.90
2022-08-17T08:23:05.755Z,999.90
2022-08-17T08:25:40.198Z,999.65
2022-08-17T08:28:27.265Z,993.95
2022-08-17T08:30:56.861Z,981.97
2022-08-17T08:33:32.031Z,999.90
2022-08-17T08:36:56.980Z,999.90
2022-08-17T08:39:14.317Z,999.90
2022-08-17T08:41:48.049Z,986.33
2022-08-17T08:45:00.010Z,999.90
2022-08-17T08:47:32.078Z,999.90
2022-08-17T08:50:04.377Z,999.90
2022-08-17T08:52:41.538Z,999.90
2022-08-17T08:55:43.586Z,999.90
2022-08-17T08:58:32.007Z,999.90
2022-08-17T09:01:00.925Z,961.72
2022-08-17T09:03:51.549Z,979.33
2022-08-17T09:06:39.750Z,999.90
2022-08-17T09:09:09.643Z,999.90
2022-08-17T09:12:01.382Z,979.05
2022-08-17T09:14:45.225Z,991.15
2022-08-17T09:17:20.638Z,999.90
2022-08-17T09:19:50.191Z,989.70
2022-08-17T09:22:22.831Z,999.90
2022-08-17T09:24:56.972Z,992.00
2022-08-17T09:27:47.688Z,999.90
2022-08-17T09:30:14.625Z,999.90
2022-08-17T09:32:47.108Z,999.90
2022-08-17T09:35:25.182Z,999.90
2022-08-17T09:38:08.200Z,999.90
2022-08-17T09:40:57.268Z,999.90
2022-08-17T09:43:32.818Z,999.90
2022-08-17T09:46:02.498Z,999.90
2022-08-17T09:48:48.323Z,999.90
2022-08-17T09:51:48.601Z,999.90
2022-08-17T09:54:38.767Z,999.90
2022-08-17T09:57:30.783Z,997.45
2022-08-17T09:59:58.047Z,999.90
2022-08-17T10:02:45.417Z,999.90
2022-08-17T10:05:12.020Z,999.90
2022-08-17T10:08:02.676Z,990.92
2022-08-17T10:10:37.011Z,999.90
2022-08-17T10:13:19.938Z,999.90
2022-08-17T10:15:53.574Z,999.90
2022-08-17T10:18:21.575Z,999.90
2022-08-17T10:21:23.421Z,999.90
2022-08-17T10:24:11.311Z,999.90
2022-08-17T10:26:46.228Z,952.47
2022-08-17T10:29:28.945Z,999.90
2022-08-17T10:32:03.479Z,997.55
2022-08-17T10:34:29.917Z,999.90
2022-08-17T10:37:09.796Z,999.10
2022-08-17T10:39:57.332Z,999.90
2022-08-17T10:42:35.511Z,999.90
2022-08-17T10:45:05.717Z,998.20
2022-08-17T10:47:55.387Z,999.90
2022-08-17T10:50:58.909Z,999.90
2022-08-17T10:53:31.247Z,999.90
2022-08-17T10:58:24.682Z,981.70
2022-08-17T11:00:53.702Z,962.50
2022-08-17T11:03:22.360Z,999.90
2022-08-17T11:06:12.719Z,945.95
2022-08-17T11:08:45.445Z,999.90
2022-08-17T11:11:23.250Z,999.90
2022-08-17T11:14:25.243Z,991.33
2022-08-17T11:16:51.638Z,999.90
2022-08-17T11:19:27.342Z,995.92
2022-08-17T11:21:59.807Z,971.80
2022-08-17T11:24:52.604Z,973.28
2022-08-17T11:27:27.181Z,948.50
2022-08-17T11:30:13.856Z,986.28
2022-08-17T11:32:54.791Z,985.28
2022-08-17T11:35:21.733Z,961.65
2022-08-17T11:37:58.906Z,981.85
2022-08-17T11:40:33.270Z,999.90
2022-08-17T11:43:09.406Z,966.47
2022-08-17T11:45:40.409Z,975.17
2022-08-17T11:48:35.323Z,946.00
2022-08-17T11:51:46.941Z,969.65
2022-08-17T11:54:33.425Z,954.50
2022-08-17T11:57:21.445Z,990.75
2022-08-17T11:59:47.902Z,977.42
2022-08-17T12:02:32.946Z,985.17
2022-08-17T12:05:14.504Z,999.90
2022-08-17T12:10:12.134Z,931.67
2022-08-17T12:12:40.474Z,951.08
2022-08-17T12:15:12.055Z,932.00
2022-08-17T12:17:42.002Z,938.65
2022-08-17T12:20:15.595Z,946.05
2022-08-17T12:23:01.176Z,943.97
2022-08-17T12:25:44.343Z,949.90
2022-08-17T12:28:25.753Z,889.67
2022-08-17T12:30:52.783Z,915.67
2022-08-17T12:33:24.997Z,967.38
2022-08-17T12:35:59.412Z,956.30
2022-08-17T12:38:28.159Z,919.25
2022-08-17T12:40:59.797Z,964.88
2022-08-17T12:43:27.736Z,938.95
2022-08-17T12:46:00.995Z,927.33
2022-08-17T12:48:59.414Z,881.85
2022-08-17T12:51:27.586Z,904.78
2022-08-17T12:53:55.532Z,920.60
2022-08-17T12:56:21.996Z,945.78
2022-08-17T12:58:53.270Z,901.47
2022-08-17T13:01:19.795Z,889.43
2022-08-17T13:03:50.781Z,909.45
2022-08-17T13:06:28.939Z,973.90
2022-08-17T13:08:55.534Z,909.65
2022-08-17T13:11:24.616Z,905.70
2022-08-17T13:13:54.222Z,884.95
2022-08-17T13:16:24.808Z,909.15
2022-08-17T13:19:06.158Z,944.50
2022-08-17T13:21:33.602Z,851.43
2022-08-17T13:24:02.084Z,933.50
2022-08-17T13:26:36.878Z,904.33
2022-08-17T13:29:08.280Z,896.05
2022-08-17T13:31:52.328Z,845.63
2022-08-17T13:34:26.866Z,840.78
2022-08-17T13:37:14.038Z,867.75
2022-08-17T13:39:42.162Z,806.78
2022-08-17T13:42:27.413Z,826.50
2022-08-17T13:44:53.859Z,860.80
2022-08-17T13:47:20.977Z,768.45
2022-08-17T13:49:48.942Z,872.13
2022-08-17T13:52:34.384Z,872.67
2022-08-17T13:55:03.074Z,858.78
2022-08-17T13:57:29.562Z,869.10
2022-08-17T14:00:12.218Z,841.72
2022-08-17T14:02:38.829Z,858.42
2022-08-17T14:05:06.539Z,826.05
2022-08-17T14:07:35.592Z,883.90
2022-08-17T14:10:05.312Z,848.63
2022-08-17T14:12:33.117Z,824.38
2022-08-17T14:14:59.887Z,867.85
2022-08-17T14:17:28.780Z,848.33
2022-08-17T14:19:55.197Z,825.28
2022-08-17T14:22:26.983Z,926.22
2022-08-17T14:27:20.486Z,775.10
2022-08-17T14:29:47.281Z,854.03
2022-08-17T14:32:22.008Z,797.63
2022-08-17T14:34:49.659Z,852.33
2022-08-17T14:37:17.371Z,802.90
2022-08-17T14:39:43.875Z,800.50
2022-08-17T14:42:11.522Z,828.88
2022-08-17T14:44:41.211Z,885.55
2022-08-17T14:47:11.154Z,820.78
2022-08-17T14:49:37.786Z,770.25
2022-08-17T14:52:04.209Z,828.47
2022-08-17T14:54:34.169Z,823.30
2022-08-17T14:57:22.890Z,721.92
2022-08-17T14:59:52.301Z,776.28
2022-08-17T15:02:22.296Z,776.38
2022-08-17T15:05:01.995Z,806.28
2022-08-17T15:07:30.937Z,775.90
2022-08-17T15:09:58.751Z,812.15
2022-08-17T15:12:32.027Z,703.47
2022-08-17T15:15:00.728Z,789.03
2022-08-17T15:17:27.355Z,828.53
2022-08-17T15:20:15.167Z,788.80
2022-08-17T15:22:42.239Z,679.40
2022-08-17T15:25:10.528Z,740.42
2022-08-17T15:27:37.017Z,719.60
2022-08-17T15:30:05.681Z,647.75
2022-08-17T15:32:35.095Z,674.28
2022-08-17T15:35:02.980Z,771.78
2022-08-17T15:37:31.822Z,735.33
2022-08-17T15:39:58.871Z,630.72
2022-08-17T15:42:25.654Z,643.75
2022-08-17T15:44:54.585Z,645.17
2022-08-17T15:47:21.622Z,603.22
2022-08-17T15:49:48.104Z,666.53
2022-08-17T15:52:19.678Z,619.75
2022-08-17T15:57:12.359Z,547.03
2022-08-17T15:59:38.780Z,643.70
2022-08-17T16:03:15.225Z,614.22
2022-08-17T16:05:02.581Z,656.67
2022-08-17T16:07:31.826Z,617.50
2022-08-17T16:09:58.515Z,541.38
2022-08-17T16:12:24.958Z,551.25
2022-08-17T16:14:53.341Z,685.83
2022-08-17T16:17:39.002Z,700.63
2022-08-17T16:20:06.447Z,669.58
2022-08-17T16:22:34.375Z,669.90
2022-08-17T16:25:02.683Z,605.60
2022-08-17T16:27:29.241Z,720.65
2022-08-17T16:29:55.684Z,563.88
2022-08-17T16:32:31.713Z,588.78
2022-08-17T16:35:03.427Z,636.63
2022-08-17T16:37:30.982Z,694.67
2022-08-17T16:40:01.400Z,704.13
2022-08-17T16:42:29.216Z,695.63
2022-08-17T16:44:57.465Z,783.40
2022-08-17T16:47:24.195Z,699.72
2022-08-17T16:49:51.070Z,726.22
2022-08-17T16:52:33.068Z,845.42
2022-08-17T16:55:00.840Z,896.30
2022-08-17T16:57:27.483Z,864.22
2022-08-17T16:59:54.015Z,777.13
2022-08-17T17:02:24.921Z,888.53
2022-08-17T17:05:03.138Z,893.33
2022-08-17T17:07:33.646Z,817.75
2022-08-17T17:10:05.218Z,896.67
2022-08-17T17:12:38.164Z,872.95
2022-08-17T17:15:22.074Z,869.22
2022-08-17T17:17:49.678Z,968.65
2022-08-17T17:20:18.611Z,848.85
2022-08-17T17:23:04.898Z,931.17
2022-08-17T17:25:39.720Z,896.45
2022-08-17T17:28:09.295Z,861.13
2022-08-17T17:30:38.571Z,912.72
2022-08-17T17:33:06.806Z,849.72
2022-08-17T17:35:52.494Z,884.63
2022-08-17T17:38:40.394Z,871.65
2022-08-17T17:41:11.329Z,866.58
2022-08-17T17:43:40.639Z,914.22
2022-08-17T17:46:28.407Z,949.78
2022-08-17T17:48:56.797Z,938.45
2022-08-17T17:52:08.692Z,944.13
2022-08-17T17:54:32.565Z,851.17
2022-08-17T17:57:01.846Z,912.55
2022-08-17T17:59:48.525Z,880.30
2022-08-17T18:02:51.267Z,872.85
2022-08-17T18:05:28.053Z,914.20
2022-08-17T18:08:33.840Z,962.13
2022-08-17T18:11:04.709Z,886.40
2022-08-17T18:13:43.855Z,926.80
2022-08-17T18:16:12.106Z,961.40
2022-08-17T18:18:40.082Z,990.28
2022-08-17T18:21:14.860Z,972.20
2022-08-17T18:23:56.682Z,999.90
2022-08-17T18:26:44.698Z,999.67
2022-08-17T18:29:13.820Z,986.67
2022-08-17T18:31:40.310Z,849.42
2022-08-17T18:37:12.051Z,980.10
2022-08-17T18:39:42.509Z,921.85
2022-08-17T18:42:30.754Z,901.33
2022-08-17T18:44:57.318Z,999.90
2022-08-17T18:47:26.979Z,999.90
2022-08-17T18:50:19.431Z,999.03
2022-08-17T18:52:48.392Z,903.33
2022-08-17T18:55:18.007Z,999.90
2022-08-17T18:57:46.642Z,922.85
2022-08-17T19:00:19.391Z,999.90
2022-08-17T19:03:15.458Z,977.30
2022-08-17T19:05:43.838Z,999.90
2022-08-17T19:08:33.761Z,862.75
2022-08-17T19:11:09.274Z,986.53
2022-08-17T19:13:40.811Z,944.92
2022-08-17T19:16:13.736Z,998.15
2022-08-17T19:18:53.403Z,986.30
2022-08-17T19:21:37.543Z,999.90
2022-08-17T19:24:24.245Z,987.17
2022-08-17T19:26:56.595Z,999.90
2022-08-17T19:29:36.041Z,888.50
2022-08-17T19:32:02.621Z,930.72
2022-08-17T19:34:34.053Z,999.90
2022-08-17T19:37:04.521Z,994.53
2022-08-17T19:39:38.389Z,874.05
2022-08-17T19:42:22.719Z,999.90
2022-08-17T19:45:14.002Z,949.17
2022-08-17T19:48:04.534Z,906.20
2022-08-17T19:50:41.035Z,905.53
2022-08-17T19:53:09.485Z,931.40
2022-08-17T19:56:02.555Z,999.90
2022-08-17T19:58:35.324Z,968.70
2022-08-17T20:03:38.141Z,999.90
2022-08-17T20:06:13.057Z,990.63
2022-08-17T20:08:54.858Z,962.58
2022-08-17T20:11:24.978Z,988.22
2022-08-17T20:14:10.218Z,965.97
2022-08-17T20:16:36.658Z,964.10
2022-08-17T20:19:07.381Z,934.13
2022-08-17T20:21:37.235Z,999.90
2022-08-17T20:24:25.723Z,999.90
2022-08-17T20:26:58.097Z,889.67
2022-08-17T20:29:37.799Z,994.85
2022-08-17T20:32:17.336Z,997.85
2022-08-17T20:34:45.976Z,999.90
2022-08-17T20:37:12.487Z,927.47
2022-08-17T20:39:39.111Z,999.90
2022-08-17T20:42:10.904Z,863.58
2022-08-17T20:44:39.415Z,999.90
2022-08-17T20:47:09.841Z,999.90
2022-08-17T20:49:39.358Z,999.75
2022-08-17T20:52:07.836Z,999.90
2022-08-17T20:54:46.572Z,987.70
2022-08-17T20:57:34.396Z,999.90
2022-08-17T21:00:06.043Z,999.90
2022-08-17T21:02:32.909Z,999.90
2022-08-17T21:05:01.107Z,985.47
2022-08-17T21:07:42.822Z,930.20
2022-08-17T21:10:11.452Z,988.13
2022-08-17T21:12:53.117Z,945.92
2022-08-17T21:15:38.576Z,954.50
2022-08-17T21:18:25.989Z,999.90
2022-08-17T21:21:15.363Z,999.90
2022-08-17T21:24:00.202Z,999.90
2022-08-17T21:26:50.538Z,996.47
2022-08-17T21:29:32.561Z,989.08
2022-08-17T21:32:03.598Z,990.30
2022-08-17T21:34:36.462Z,985.55
2022-08-17T21:37:25.228Z,999.90
2022-08-17T21:40:21.362Z,982.58
2022-08-17T21:42:50.523Z,975.28
2022-08-17T21:45:22.145Z,965.22
2022-08-17T21:47:50.832Z,976.42
2022-08-17T21:50:21.615Z,999.90
2022-08-17T21:52:48.906Z,999.90
2022-08-17T21:55:21.535Z,999.90
2022-08-17T21:57:53.190Z,999.90
2022-08-17T22:00:36.287Z,998.60
2022-08-17T22:03:06.908Z,999.90
2022-08-17T22:05:33.346Z,999.90
2022-08-17T22:08:18.280Z,999.90
2022-08-17T22:10:46.373Z,999.90
2022-08-17T22:13:19.750Z,999.17
2022-08-17T22:16:28.098Z,999.40
2022-08-17T22:18:53.665Z,999.90
2022-08-17T22:21:22.541Z,999.90
2022-08-17T22:24:15.340Z,973.10
2022-08-17T22:26:59.460Z,999.90
2022-08-17T22:29:44.719Z,965.58
2022-08-17T22:32:29.392Z,999.90
2022-08-17T22:35:15.203Z,995.80
2022-08-17T22:37:43.115Z,999.90
2022-08-17T22:40:09.695Z,974.50
2022-08-17T22:42:46.960Z,999.90
2022-08-17T22:45:13.424Z,999.90
2022-08-17T22:47:43.066Z,999.90
2022-08-17T22:50:14.253Z,999.90
2022-08-17T22:53:02.447Z,999.90
2022-08-17T22:55:50.851Z,999.90
2022-08-17T22:58:37.177Z,999.72
2022-08-17T23:01:25.810Z,996.55
2022-08-17T23:03:52.819Z,994.97
2022-08-17T23:06:19.423Z,984.45
2022-08-17T23:08:54.819Z,999.90
2022-08-17T23:11:36.619Z,993.95
2022-08-17T23:14:14.533Z,999.38
2022-08-17T23:16:44.537Z,999.90
2022-08-17T23:19:11.852Z,999.90
2022-08-17T23:21:38.346Z,952.05
2022-08-17T23:24:05.846Z,999.17
2022-08-17T23:26:35.974Z,999.90
2022-08-17T23:29:04.418Z,995.80
2022-08-17T23:31:34.451Z,999.90
2022-08-17T23:34:01.743Z,996.97
2022-08-17T23:36:28.442Z,998.25
2022-08-17T23:38:54.984Z,988.67
2022-08-17T23:41:21.847Z,999.90
2022-08-17T23:43:50.568Z,999.90
2022-08-17T23:46:17.400Z,999.90
2022-08-17T23:48:44.047Z,988.03
2022-08-17T23:51:20.466Z,999.90
2022-08-17T23:53:52.907Z,999.90
2022-08-17T23:56:25.977Z,963.80
